sensor_id;sensor_type;location;lat;lon;timestamp;temperature;humidity
1534;DHT22;760;48.822;9.304;2022-09-17T04:05:16;9.90;99.90
1534;DHT22;760;48.822;9.304;2022-09-17T04:07:42;9.90;99.90
1534;DHT22;760;48.822;9.304;2022-09-17T04:10:08;9.80;99.90
1534;DHT22;760;48.822;9.304;2022-09-17T04:12:34;9.80;99.90
1534;DHT22;760;48.822;9.304;2022-09-17T04:14:59;9.80;99.90
1534;DHT22;760;48.822;9.304;2022-09-17T04:17:26;9.70;99.90
1534;DHT22;760;48.822;9.304;2022-09-17T04:19:52;9.60;99.90
1534;DHT22;760;48.822;9.304;2022-09-17T04:22:18;9.70;99.90
1534;DHT22;760;48.822;9.304;2022-09-17T04:24:43;9.70;99.90
1534;DHT22;760;48.822;9.304;2022-09-17T04:27:09;9.70;99.90
1534;DHT22;760;48.822;9.304;2022-09-17T04:29:34;9.70;99.90
1534;DHT22;760;48.822;9.304;2022-09-17T04:32:00;9.80;99.90
1534;DHT22;760;48.822;9.304;2022-09-17T04:34:26;9.90;99.90
1534;DHT22;760;48.822;9.304;2022-09-17T04:36:51;9.90;99.90
1534;DHT22;760;48.822;9.304;2022-09-17T04:39:17;10.00;99.90
1534;DHT22;760;48.822;9.304;2022-09-17T04:41:43;10.10;99.90
1534;DHT22;760;48.822;9.304;2022-09-17T04:44:08;10.20;99.90
1534;DHT22;760;48.822;9.304;2022-09-17T04:46:34;10.20;99.90
1534;DHT22;760;48.822;9.304;2022-09-17T04:49:00;10.30;99.90
1534;DHT22;760;48.822;9.304;2022-09-17T04:51:25;10.30;99.90
1534;DHT22;760;48.822;9.304;2022-09-17T04:53:51;10.30;99.90
1534;DHT22;760;48.822;9.304;2022-09-17T04:56:16;10.40;99.90
1534;DHT22;760;48.822;9.304;2022-09-17T04:58:42;10.40;99.90
1534;DHT22;760;48.822;9.304;2022-09-17T05:01:07;10.40;99.90
1534;DHT22;760;48.822;9.304;2022-09-17T05:03:33;10.40;99.90
1534;DHT22;760;48.822;9.304;2022-09-17T05:05:59;10.40;99.90
1534;DHT22;760;48.822;9.304;2022-09-17T05:08:24;10.40;99.90
1534;DHT22;760;48.822;9.304;2022-09-17T05:10:50;10.40;99.90
1534;DHT22;760;48.822;9.304;2022-09-17T05:13:16;10.40;99.90
1534;DHT22;760;48.822;9.304;2022-09-17T05:15:42;10.50;99.90
1534;DHT22;760;48.822;9.304;2022-09-17T05:18:08;10.50;99.90
1534;DHT22;760;48.822;9.304;2022-09-17T05:20:33;10.50;99.90
1534;DHT22;760;48.822;9.304;2022-09-17T05:22:59;10.50;99.90
1534;DHT22;760;48.822;9.304;2022-09-17T05:25:24;10.50;99.90
1534;DHT22;760;48.822;9.304;2022-09-17T05:27:51;10.50;99.90
1534;DHT22;760;48.822;9.304;2022-09-17T05:30:17;10.50;99.90
1534;DHT22;760;48.822;9.304;2022-09-17T05:32:43;10.50;99.90
1534;DHT22;760;48.822;9.304;2022-09-17T05:35:09;10.50;99.90
1534;DHT22;760;48.822;9.304;2022-09-17T05:37:35;10.50;99.90
1534;DHT22;760;48.822;9.304;2022-09-17T05:40:04;10.50;99.90
1534;DHT22;760;48.822;9.304;2022-09-17T05:42:33;10.50;99.90
1534;DHT22;760;48.822;9.304;2022-09-17T05:44:59;10.50;99.90
1534;DHT22;760;48.822;9.304;2022-09-17T05:47:25;10.60;99.90
1534;DHT22;760;48.822;9.304;2022-09-17T05:49:50;10.60;99.90
1534;DHT22;760;48.822;9.304;2022-09-17T05:52:16;10.70;99.90
1534;DHT22;760;48.822;9.304;2022-09-17T05:54:42;10.70;99.90
1534;DHT22;760;48.822;9.304;2022-09-17T05:57:07;10.80;99.90
1534;DHT22;760;48.822;9.304;2022-09-17T05:59:33;10.90;99.90
1534;DHT22;760;48.822;9.304;2022-09-17T06:02:00;11.00;99.90
1534;DHT22;760;48.822;9.304;2022-09-17T06:04:25;11.10;99.90
1534;DHT22;760;48.822;9.304;2022-09-17T06:06:51;11.20;99.90
1534;DHT22;760;48.822;9.304;2022-09-17T06:09:17;11.30;99.90
1534;DHT22;760;48.822;9.304;2022-09-17T06:11:42;11.50;99.90
1534;DHT22;760;48.822;9.304;2022-09-17T06:14:08;11.60;99.90
1534;DHT22;760;48.822;9.304;2022-09-17T06:16:34;11.60;99.90
1534;DHT22;760;48.822;9.304;2022-09-17T06:18:59;11.60;99.90
1534;DHT22;760;48.822;9.304;2022-09-17T06:21:25;11.60;99.90
1534;DHT22;760;48.822;9.304;2022-09-17T06:23:51;11.60;99.90
1534;DHT22;760;48.822;9.304;2022-09-17T06:26:17;11.50;99.90
1534;DHT22;760;48.822;9.304;2022-09-17T06:28:43;11.50;99.90
1534;DHT22;760;48.822;9.304;2022-09-17T06:31:11;11.50;99.90
1534;DHT22;760;48.822;9.304;2022-09-17T06:33:36;11.60;99.90
1534;DHT22;760;48.822;9.304;2022-09-17T06:36:04;11.50;99.90
1534;DHT22;760;48.822;9.304;2022-09-17T06:38:32;11.50;99.90
1534;DHT22;760;48.822;9.304;2022-09-17T06:40:58;11.60;99.90
1534;DHT22;760;48.822;9.304;2022-09-17T06:43:25;11.60;99.90
1534;DHT22;760;48.822;9.304;2022-09-17T06:45:52;11.70;99.90
1534;DHT22;760;48.822;9.304;2022-09-17T06:48:18;11.70;99.90
1534;DHT22;760;48.822;9.304;2022-09-17T06:50:43;11.70;99.90
1534;DHT22;760;48.822;9.304;2022-09-17T06:53:09;11.80;99.90
1534;DHT22;760;48.822;9.304;2022-09-17T06:55:35;11.80;99.90
1534;DHT22;760;48.822;9.304;2022-09-17T06:58:00;11.80;99.90
1534;DHT22;760;48.822;9.304;2022-09-17T07:00:26;11.80;99.90
1534;DHT22;760;48.822;9.304;2022-09-17T07:02:59;11.80;99.90
1534;DHT22;760;48.822;9.304;2022-09-17T07:05:25;11.70;99.90
1534;DHT22;760;48.822;9.304;2022-09-17T07:07:52;11.70;99.90
1534;DHT22;760;48.822;9.304;2022-09-17T07:10:18;11.60;99.90
1534;DHT22;760;48.822;9.304;2022-09-17T07:12:44;11.50;99.90
1534;DHT22;760;48.822;9.304;2022-09-17T07:15:10;11.50;99.90
1534;DHT22;760;48.822;9.304;2022-09-17T07:17:36;11.50;99.90
1534;DHT22;760;48.822;9.304;2022-09-17T07:20:05;11.40;99.90
1534;DHT22;760;48.822;9.304;2022-09-17T07:22:31;11.40;99.90
1534;DHT22;760;48.822;9.304;2022-09-17T07:24:57;11.40;99.90
1534;DHT22;760;48.822;9.304;2022-09-17T07:27:22;11.30;99.90
1534;DHT22;760;48.822;9.304;2022-09-17T07:29:48;11.30;99.90
1534;DHT22;760;48.822;9.304;2022-09-17T07:32:13;11.30;99.90
1534;DHT22;760;48.822;9.304;2022-09-17T07:34:39;11.20;99.90
1534;DHT22;760;48.822;9.304;2022-09-17T07:37:05;11.30;99.90
1534;DHT22;760;48.822;9.304;2022-09-17T07:39:30;11.20;99.90
1534;DHT22;760;48.822;9.304;2022-09-17T07:41:56;11.20;99.90
1534;DHT22;760;48.822;9.304;2022-09-17T07:44:21;11.10;99.90
1534;DHT22;760;48.822;9.304;2022-09-17T07:46:47;11.10;99.90
1534;DHT22;760;48.822;9.304;2022-09-17T07:49:12;11.10;99.90
1534;DHT22;760;48.822;9.304;2022-09-17T07:51:38;11.10;99.90
1534;DHT22;760;48.822;9.304;2022-09-17T07:54:04;11.00;99.90
1534;DHT22;760;48.822;9.304;2022-09-17T07:56:30;11.10;99.90
1534;DHT22;760;48.822;9.304;2022-09-17T07:58:56;11.10;99.90
1534;DHT22;760;48.822;9.304;2022-09-17T08:01:22;11.10;99.90
1534;DHT22;760;48.822;9.304;2022-09-17T08:03:51;11.10;99.90
1534;DHT22;760;48.822;9.304;2022-09-17T08:06:23;11.10;99.90
1534;DHT22;760;48.822;9.304;2022-09-17T08:08:50;11.20;99.90
1534;DHT22;760;48.822;9.304;2022-09-17T08:11:21;11.30;99.90
1534;DHT22;760;48.822;9.304;2022-09-17T08:13:51;11.40;99.90
1534;DHT22;760;48.822;9.304;2022-09-17T08:16:18;11.60;99.90
1534;DHT22;760;48.822;9.304;2022-09-17T08:18:44;11.80;99.90
1534;DHT22;760;48.822;9.304;2022-09-17T08:21:13;12.00;99.90
1534;DHT22;760;48.822;9.304;2022-09-17T08:23:39;12.10;99.90
1534;DHT22;760;48.822;9.304;2022-09-17T08:26:06;12.10;99.90
1534;DHT22;760;48.822;9.304;2022-09-17T08:28:34;12.10;99.90
1534;DHT22;760;48.822;9.304;2022-09-17T08:31:05;12.10;99.90
1534;DHT22;760;48.822;9.304;2022-09-17T08:33:32;12.20;99.90
1534;DHT22;760;48.822;9.304;2022-09-17T08:35:58;12.20;99.90
1534;DHT22;760;48.822;9.304;2022-09-17T08:38:27;12.30;99.90
1534;DHT22;760;48.822;9.304;2022-09-17T08:46:14;12.60;99.90
1534;DHT22;760;48.822;9.304;2022-09-17T08:48:44;12.80;99.90
1534;DHT22;760;48.822;9.304;2022-09-17T08:51:32;13.10;99.90
1534;DHT22;760;48.822;9.304;2022-09-17T08:54:25;13.50;99.90
1534;DHT22;760;48.822;9.304;2022-09-17T08:57:08;14.00;99.90
1534;DHT22;760;48.822;9.304;2022-09-17T09:00:00;14.80;99.90
1534;DHT22;760;48.822;9.304;2022-09-17T09:07:54;18.70;99.90
1534;DHT22;760;48.822;9.304;2022-09-17T09:10:28;19.10;99.90
1534;DHT22;760;48.822;9.304;2022-09-17T09:12:58;19.10;97.90
1534;DHT22;760;48.822;9.304;2022-09-17T09:18:34;17.90;98.00
1534;DHT22;760;48.822;9.304;2022-09-17T09:21:29;16.90;99.10
1534;DHT22;760;48.822;9.304;2022-09-17T09:24:03;16.20;99.90
1534;DHT22;760;48.822;9.304;2022-09-17T09:33:30;15.10;99.90
1534;DHT22;760;48.822;9.304;2022-09-17T09:35:28;14.80;99.90
1534;DHT22;760;48.822;9.304;2022-09-17T09:38:03;14.60;99.90
1534;DHT22;760;48.822;9.304;2022-09-17T09:40:43;14.30;99.90
1534;DHT22;760;48.822;9.304;2022-09-17T09:43:32;14.20;99.90
1534;DHT22;760;48.822;9.304;2022-09-17T09:49:18;14.30;99.90
1534;DHT22;760;48.822;9.304;2022-09-17T09:58:30;14.40;99.90
1534;DHT22;760;48.822;9.304;2022-09-17T10:00:58;14.50;99.90
1534;DHT22;760;48.822;9.304;2022-09-17T10:03:39;14.60;99.90
1534;DHT22;760;48.822;9.304;2022-09-17T10:06:07;14.70;99.90
1534;DHT22;760;48.822;9.304;2022-09-17T10:08:38;14.80;99.90
1534;DHT22;760;48.822;9.304;2022-09-17T10:11:26;15.00;99.90
1534;DHT22;760;48.822;9.304;2022-09-17T10:13:52;15.20;99.90
1534;DHT22;760;48.822;9.304;2022-09-17T10:16:25;15.40;99.90
1534;DHT22;760;48.822;9.304;2022-09-17T10:19:13;15.40;99.90
1534;DHT22;760;48.822;9.304;2022-09-17T10:21:42;15.30;99.90
1534;DHT22;760;48.822;9.304;2022-09-17T10:24:24;15.30;99.90
1534;DHT22;760;48.822;9.304;2022-09-17T10:26:56;15.30;99.90
1534;DHT22;760;48.822;9.304;2022-09-17T10:29:24;15.30;99.90
1534;DHT22;760;48.822;9.304;2022-09-17T10:31:52;15.10;99.90
1534;DHT22;760;48.822;9.304;2022-09-17T10:34:23;15.00;99.90
1534;DHT22;760;48.822;9.304;2022-09-17T10:36:50;15.00;99.90
1534;DHT22;760;48.822;9.304;2022-09-17T10:39:29;15.00;99.90
1534;DHT22;760;48.822;9.304;2022-09-17T10:41:58;15.10;99.90
1534;DHT22;760;48.822;9.304;2022-09-17T10:44:29;15.10;99.90
1534;DHT22;760;48.822;9.304;2022-09-17T10:47:11;15.30;99.90
1534;DHT22;760;48.822;9.304;2022-09-17T10:49:48;15.70;99.90
1534;DHT22;760;48.822;9.304;2022-09-17T10:52:31;16.20;99.90
1534;DHT22;760;48.822;9.304;2022-09-17T10:55:17;16.70;99.90
1534;DHT22;760;48.822;9.304;2022-09-17T11:06:21;18.10;98.50
1534;DHT22;760;48.822;9.304;2022-09-17T11:12:05;18.10;97.50
1534;DHT22;760;48.822;9.304;2022-09-17T11:20:04;17.90;96.30
1534;DHT22;760;48.822;9.304;2022-09-17T11:23:07;18.00;96.80
1534;DHT22;760;48.822;9.304;2022-09-17T11:31:20;18.50;95.10
1534;DHT22;760;48.822;9.304;2022-09-17T11:36:28;18.70;94.20
1534;DHT22;760;48.822;9.304;2022-09-17T11:38:57;18.80;93.70
1534;DHT22;760;48.822;9.304;2022-09-17T11:41:31;18.60;92.90
1534;DHT22;760;48.822;9.304;2022-09-17T11:44:08;18.50;92.70
1534;DHT22;760;48.822;9.304;2022-09-17T11:46:42;18.40;93.10
1534;DHT22;760;48.822;9.304;2022-09-17T11:49:29;18.40;94.10
1534;DHT22;760;48.822;9.304;2022-09-17T11:52:25;18.30;94.40
1534;DHT22;760;48.822;9.304;2022-09-17T11:57:32;17.70;93.90
1534;DHT22;760;48.822;9.304;2022-09-17T12:05:21;17.00;94.70
1534;DHT22;760;48.822;9.304;2022-09-17T12:10:48;16.60;94.60
1534;DHT22;760;48.822;9.304;2022-09-17T12:13:37;16.30;95.30
1534;DHT22;760;48.822;9.304;2022-09-17T12:19:15;15.80;99.80
1534;DHT22;760;48.822;9.304;2022-09-17T12:21:55;15.60;99.90
1534;DHT22;760;48.822;9.304;2022-09-17T12:24:26;15.50;99.90
1534;DHT22;760;48.822;9.304;2022-09-17T12:38:14;16.20;99.90
1534;DHT22;760;48.822;9.304;2022-09-17T12:41:23;16.20;99.90
1534;DHT22;760;48.822;9.304;2022-09-17T12:44:17;16.10;99.90
1534;DHT22;760;48.822;9.304;2022-09-17T12:46:54;15.90;99.90
1534;DHT22;760;48.822;9.304;2022-09-17T12:52:30;16.30;99.90
1534;DHT22;760;48.822;9.304;2022-09-17T13:00:24;16.60;99.70
1534;DHT22;760;48.822;9.304;2022-09-17T13:03:03;16.40;99.50
1534;DHT22;760;48.822;9.304;2022-09-17T13:19:05;15.90;99.00
1534;DHT22;760;48.822;9.304;2022-09-17T13:24:18;15.70;99.90
1534;DHT22;760;48.822;9.304;2022-09-17T13:26:45;15.60;99.40
1534;DHT22;760;48.822;9.304;2022-09-17T13:29:11;15.40;99.80
1534;DHT22;760;48.822;9.304;2022-09-17T13:36:48;15.50;99.90
1534;DHT22;760;48.822;9.304;2022-09-17T13:39:42;15.60;99.80
1534;DHT22;760;48.822;9.304;2022-09-17T13:42:21;15.40;99.90
1534;DHT22;760;48.822;9.304;2022-09-17T13:45:04;15.20;99.90
1534;DHT22;760;48.822;9.304;2022-09-17T13:47:31;15.10;99.90
1534;DHT22;760;48.822;9.304;2022-09-17T13:50:05;15.10;99.90
1534;DHT22;760;48.822;9.304;2022-09-17T13:52:38;15.00;99.90
1534;DHT22;760;48.822;9.304;2022-09-17T13:55:06;14.90;99.90
1534;DHT22;760;48.822;9.304;2022-09-17T13:57:32;14.90;99.90
1534;DHT22;760;48.822;9.304;2022-09-17T14:16:34;14.40;99.90
1534;DHT22;760;48.822;9.304;2022-09-17T14:19:30;14.40;99.90
1534;DHT22;760;48.822;9.304;2022-09-17T14:22:19;14.50;99.90
1534;DHT22;760;48.822;9.304;2022-09-17T14:24:52;14.60;99.90
1534;DHT22;760;48.822;9.304;2022-09-17T14:27:43;14.60;99.90
1534;DHT22;760;48.822;9.304;2022-09-17T14:30:21;14.80;99.90
1534;DHT22;760;48.822;9.304;2022-09-17T14:35:39;14.90;99.90
1534;DHT22;760;48.822;9.304;2022-09-17T14:40:34;15.20;99.90
1534;DHT22;760;48.822;9.304;2022-09-17T14:43:02;15.30;99.90
1534;DHT22;760;48.822;9.304;2022-09-17T14:45:40;15.40;99.90
1534;DHT22;760;48.822;9.304;2022-09-17T14:48:27;15.50;99.90
1534;DHT22;760;48.822;9.304;2022-09-17T14:51:31;15.60;99.90
1534;DHT22;760;48.822;9.304;2022-09-17T14:56:35;15.50;99.90
1534;DHT22;760;48.822;9.304;2022-09-17T14:59:04;15.50;99.90
1534;DHT22;760;48.822;9.304;2022-09-17T15:01:30;15.50;99.90
1534;DHT22;760;48.822;9.304;2022-09-17T15:06:41;15.60;99.90
1534;DHT22;760;48.822;9.304;2022-09-17T15:09:18;15.50;99.90
1534;DHT22;760;48.822;9.304;2022-09-17T15:11:45;15.50;99.90
1534;DHT22;760;48.822;9.304;2022-09-17T15:14:38;15.40;99.90
1534;DHT22;760;48.822;9.304;2022-09-17T15:17:05;15.40;99.90
1534;DHT22;760;48.822;9.304;2022-09-17T15:19:38;15.40;99.90
1534;DHT22;760;48.822;9.304;2022-09-17T15:22:12;15.50;99.90
1534;DHT22;760;48.822;9.304;2022-09-17T15:27:31;15.60;99.90
1534;DHT22;760;48.822;9.304;2022-09-17T15:30:24;15.50;99.90
1534;DHT22;760;48.822;9.304;2022-09-17T15:32:52;15.30;99.90
1534;DHT22;760;48.822;9.304;2022-09-17T15:35:24;15.10;99.90
1534;DHT22;760;48.822;9.304;2022-09-17T15:37:57;14.90;99.90
1534;DHT22;760;48.822;9.304;2022-09-17T15:40:27;14.80;99.90
1534;DHT22;760;48.822;9.304;2022-09-17T15:43:04;14.70;99.90
1534;DHT22;760;48.822;9.304;2022-09-17T15:45:36;14.60;99.90
1534;DHT22;760;48.822;9.304;2022-09-17T15:48:04;14.50;99.90
1534;DHT22;760;48.822;9.304;2022-09-17T15:50:32;14.50;99.90
1534;DHT22;760;48.822;9.304;2022-09-17T15:53:22;14.60;99.90
1534;DHT22;760;48.822;9.304;2022-09-17T15:56:22;14.80;99.90
1534;DHT22;760;48.822;9.304;2022-09-17T16:08:59;14.50;99.90
1534;DHT22;760;48.822;9.304;2022-09-17T16:11:26;14.50;99.90
1534;DHT22;760;48.822;9.304;2022-09-17T16:13:54;14.40;99.90
1534;DHT22;760;48.822;9.304;2022-09-17T16:16:23;14.40;99.90
1534;DHT22;760;48.822;9.304;2022-09-17T16:18:49;14.30;99.90
1534;DHT22;760;48.822;9.304;2022-09-17T16:21:16;14.10;99.90
1534;DHT22;760;48.822;9.304;2022-09-17T16:23:43;14.00;99.90
1534;DHT22;760;48.822;9.304;2022-09-17T16:26:24;13.90;99.90
1534;DHT22;760;48.822;9.304;2022-09-17T16:28:52;13.80;99.90
1534;DHT22;760;48.822;9.304;2022-09-17T16:31:21;13.70;99.90
1534;DHT22;760;48.822;9.304;2022-09-17T16:33:46;13.70;99.90
1534;DHT22;760;48.822;9.304;2022-09-17T16:36:15;13.60;99.90
1534;DHT22;760;48.822;9.304;2022-09-17T16:38:41;13.70;99.90
1534;DHT22;760;48.822;9.304;2022-09-17T16:41:06;13.70;99.90
1534;DHT22;760;48.822;9.304;2022-09-17T16:43:32;13.80;99.90
1534;DHT22;760;48.822;9.304;2022-09-17T16:46:03;13.80;99.90
1534;DHT22;760;48.822;9.304;2022-09-17T16:48:31;13.80;99.90
1534;DHT22;760;48.822;9.304;2022-09-17T16:50:57;13.80;99.90
1534;DHT22;760;48.822;9.304;2022-09-17T16:53:23;13.80;99.90
1534;DHT22;760;48.822;9.304;2022-09-17T16:55:48;13.80;99.90
1534;DHT22;760;48.822;9.304;2022-09-17T16:58:14;13.80;99.90
1534;DHT22;760;48.822;9.304;2022-09-17T17:00:43;13.80;99.90
1534;DHT22;760;48.822;9.304;2022-09-17T17:03:11;13.80;99.90
1534;DHT22;760;48.822;9.304;2022-09-17T17:05:38;13.80;99.90
1534;DHT22;760;48.822;9.304;2022-09-17T17:08:05;13.70;99.90
1534;DHT22;760;48.822;9.304;2022-09-17T17:10:31;13.70;99.90
1534;DHT22;760;48.822;9.304;2022-09-17T17:12:57;13.70;99.90
1534;DHT22;760;48.822;9.304;2022-09-17T17:15:23;13.70;99.90
1534;DHT22;760;48.822;9.304;2022-09-17T17:17:49;13.70;99.90
1534;DHT22;760;48.822;9.304;2022-09-17T17:20:14;13.70;99.90
1534;DHT22;760;48.822;9.304;2022-09-17T17:22:41;13.60;99.90
1534;DHT22;760;48.822;9.304;2022-09-17T17:25:09;13.60;99.90
1534;DHT22;760;48.822;9.304;2022-09-17T17:27:35;13.50;99.90
1534;DHT22;760;48.822;9.304;2022-09-17T17:30:01;13.30;99.90
1534;DHT22;760;48.822;9.304;2022-09-17T17:32:29;13.00;99.90
1534;DHT22;760;48.822;9.304;2022-09-17T17:34:55;12.70;99.90
1534;DHT22;760;48.822;9.304;2022-09-17T17:37:20;12.50;99.90
1534;DHT22;760;48.822;9.304;2022-09-17T17:39:47;12.20;99.90
1534;DHT22;760;48.822;9.304;2022-09-17T17:42:13;12.00;99.90
1534;DHT22;760;48.822;9.304;2022-09-17T17:44:39;11.90;99.90
1534;DHT22;760;48.822;9.304;2022-09-17T17:47:05;11.70;99.90
1534;DHT22;760;48.822;9.304;2022-09-17T17:49:31;11.50;99.90
1534;DHT22;760;48.822;9.304;2022-09-17T17:51:57;11.40;99.90
1534;DHT22;760;48.822;9.304;2022-09-17T17:54:23;11.30;99.90
1534;DHT22;760;48.822;9.304;2022-09-17T17:56:49;11.20;99.90
1534;DHT22;760;48.822;9.304;2022-09-17T17:59:15;11.20;99.90
1534;DHT22;760;48.822;9.304;2022-09-17T18:01:40;11.10;99.90
1534;DHT22;760;48.822;9.304;2022-09-17T18:04:06;11.10;99.90
1534;DHT22;760;48.822;9.304;2022-09-17T18:06:33;11.10;99.90
1534;DHT22;760;48.822;9.304;2022-09-17T18:08:59;11.10;99.90
1534;DHT22;760;48.822;9.304;2022-09-17T18:11:26;11.10;99.90
1534;DHT22;760;48.822;9.304;2022-09-17T18:13:54;11.20;99.90
1534;DHT22;760;48.822;9.304;2022-09-17T18:16:21;11.20;99.90
1534;DHT22;760;48.822;9.304;2022-09-17T18:18:47;11.30;99.90
1534;DHT22;760;48.822;9.304;2022-09-17T18:21:20;11.30;99.90
1534;DHT22;760;48.822;9.304;2022-09-17T18:23:47;11.30;99.90
1534;DHT22;760;48.822;9.304;2022-09-17T18:26:16;11.40;99.90
1534;DHT22;760;48.822;9.304;2022-09-17T18:28:43;11.40;99.90
1534;DHT22;760;48.822;9.304;2022-09-17T18:33:42;11.40;99.90
1534;DHT22;760;48.822;9.304;2022-09-17T18:36:08;11.40;99.90
1534;DHT22;760;48.822;9.304;2022-09-17T18:38:34;11.50;99.90
1534;DHT22;760;48.822;9.304;2022-09-17T18:41:09;11.40;99.90
1534;DHT22;760;48.822;9.304;2022-09-17T18:43:36;11.40;99.90
1534;DHT22;760;48.822;9.304;2022-09-17T18:46:03;11.40;99.90
1534;DHT22;760;48.822;9.304;2022-09-17T18:48:29;11.40;99.90
1534;DHT22;760;48.822;9.304;2022-09-17T18:51:00;11.40;99.90
1534;DHT22;760;48.822;9.304;2022-09-17T18:53:27;11.40;99.90
1534;DHT22;760;48.822;9.304;2022-09-17T18:55:53;11.40;99.90
1534;DHT22;760;48.822;9.304;2022-09-17T18:58:20;11.30;99.90
1534;DHT22;760;48.822;9.304;2022-09-17T19:00:46;11.30;99.90
1534;DHT22;760;48.822;9.304;2022-09-17T19:03:11;11.20;99.90
1534;DHT22;760;48.822;9.304;2022-09-17T19:05:37;11.30;99.90
1534;DHT22;760;48.822;9.304;2022-09-17T19:08:03;11.20;99.90
1534;DHT22;760;48.822;9.304;2022-09-17T19:10:30;11.10;99.90
1534;DHT22;760;48.822;9.304;2022-09-17T19:12:56;11.10;99.90
1534;DHT22;760;48.822;9.304;2022-09-17T19:15:22;11.10;99.90
1534;DHT22;760;48.822;9.304;2022-09-17T19:17:48;11.10;99.90
1534;DHT22;760;48.822;9.304;2022-09-17T19:20:14;11.10;99.90
1534;DHT22;760;48.822;9.304;2022-09-17T19:22:40;11.10;99.90
1534;DHT22;760;48.822;9.304;2022-09-17T19:25:06;11.00;99.90
1534;DHT22;760;48.822;9.304;2022-09-17T19:27:32;11.00;99.90
1534;DHT22;760;48.822;9.304;2022-09-17T19:29:57;11.00;99.90
1534;DHT22;760;48.822;9.304;2022-09-17T19:32:24;10.90;99.90
1534;DHT22;760;48.822;9.304;2022-09-17T19:34:53;10.80;99.90
1534;DHT22;760;48.822;9.304;2022-09-17T19:37:18;10.80;99.90
1534;DHT22;760;48.822;9.304;2022-09-17T19:39:46;10.70;99.90
1534;DHT22;760;48.822;9.304;2022-09-17T19:42:13;10.60;99.90
1534;DHT22;760;48.822;9.304;2022-09-17T19:44:39;10.50;99.90
1534;DHT22;760;48.822;9.304;2022-09-17T19:47:04;10.40;99.90
1534;DHT22;760;48.822;9.304;2022-09-17T19:49:30;10.30;99.90
1534;DHT22;760;48.822;9.304;2022-09-17T19:51:55;10.30;99.90
1534;DHT22;760;48.822;9.304;2022-09-17T19:54:21;10.10;99.90
1534;DHT22;760;48.822;9.304;2022-09-17T19:56:47;10.10;99.90
1534;DHT22;760;48.822;9.304;2022-09-17T19:59:12;10.10;99.90
1534;DHT22;760;48.822;9.304;2022-09-17T20:01:38;10.10;99.90
1534;DHT22;760;48.822;9.304;2022-09-17T20:04:04;10.00;99.90
1534;DHT22;760;48.822;9.304;2022-09-17T20:06:33;9.90;99.90
1534;DHT22;760;48.822;9.304;2022-09-17T20:08:58;9.90;99.90
1534;DHT22;760;48.822;9.304;2022-09-17T20:11:25;9.90;99.90
1534;DHT22;760;48.822;9.304;2022-09-17T20:13:58;9.80;99.90
1534;DHT22;760;48.822;9.304;2022-09-17T20:16:28;9.80;99.90
1534;DHT22;760;48.822;9.304;2022-09-17T20:18:53;9.80;99.90
1534;DHT22;760;48.822;9.304;2022-09-17T20:21:25;9.90;99.90
1534;DHT22;760;48.822;9.304;2022-09-17T20:23:52;9.90;99.90
1534;DHT22;760;48.822;9.304;2022-09-17T20:26:18;9.90;99.90
1534;DHT22;760;48.822;9.304;2022-09-17T20:28:45;10.00;99.90
1534;DHT22;760;48.822;9.304;2022-09-17T20:31:13;10.10;99.90
1534;DHT22;760;48.822;9.304;2022-09-17T20:33:40;10.10;99.90
1534;DHT22;760;48.822;9.304;2022-09-17T20:36:16;10.10;99.90
1534;DHT22;760;48.822;9.304;2022-09-17T20:38:43;10.20;99.90
1534;DHT22;760;48.822;9.304;2022-09-17T20:41:10;10.20;99.90
1534;DHT22;760;48.822;9.304;2022-09-17T20:43:41;10.20;99.90
1534;DHT22;760;48.822;9.304;2022-09-17T20:46:08;10.20;99.90
1534;DHT22;760;48.822;9.304;2022-09-17T20:48:34;10.20;99.90
1534;DHT22;760;48.822;9.304;2022-09-17T20:51:06;10.20;99.90
1534;DHT22;760;48.822;9.304;2022-09-17T20:53:34;10.20;99.90
1534;DHT22;760;48.822;9.304;2022-09-17T20:56:22;10.30;99.90
1534;DHT22;760;48.822;9.304;2022-09-17T20:58:56;10.30;99.90
1534;DHT22;760;48.822;9.304;2022-09-17T21:01:26;10.30;99.90
1534;DHT22;760;48.822;9.304;2022-09-17T21:03:57;10.30;99.90
1534;DHT22;760;48.822;9.304;2022-09-17T21:06:25;10.30;99.90
1534;DHT22;760;48.822;9.304;2022-09-17T21:08:52;10.30;99.90
1534;DHT22;760;48.822;9.304;2022-09-17T21:11:19;10.30;99.90
1534;DHT22;760;48.822;9.304;2022-09-17T21:13:46;10.20;99.90
1534;DHT22;760;48.822;9.304;2022-09-17T21:16:12;10.10;99.90
1534;DHT22;760;48.822;9.304;2022-09-17T21:18:38;10.00;99.90
1534;DHT22;760;48.822;9.304;2022-09-17T21:21:06;9.90;99.90
1534;DHT22;760;48.822;9.304;2022-09-17T21:23:34;9.80;99.90
1534;DHT22;760;48.822;9.304;2022-09-17T21:26:05;9.70;99.90
1534;DHT22;760;48.822;9.304;2022-09-17T21:28:33;9.70;99.90
1534;DHT22;760;48.822;9.304;2022-09-17T21:33:36;9.70;99.90
1534;DHT22;760;48.822;9.304;2022-09-17T21:36:13;9.70;99.90
1534;DHT22;760;48.822;9.304;2022-09-17T21:38:39;9.70;99.90
1534;DHT22;760;48.822;9.304;2022-09-17T21:41:13;9.70;99.90
1534;DHT22;760;48.822;9.304;2022-09-17T21:43:40;9.70;99.90
1534;DHT22;760;48.822;9.304;2022-09-17T21:46:14;9.70;99.90
1534;DHT22;760;48.822;9.304;2022-09-17T21:48:43;9.70;99.90
1534;DHT22;760;48.822;9.304;2022-09-17T21:51:11;9.70;99.90
1534;DHT22;760;48.822;9.304;2022-09-17T21:53:37;9.70;99.90
1534;DHT22;760;48.822;9.304;2022-09-17T21:56:06;9.80;99.90
1534;DHT22;760;48.822;9.304;2022-09-17T21:58:33;9.90;99.90
